Time;durP1;ratioP1;P1;durP2;ratioP2;P2;SDS_P1;SDS_P2;PMS_P1;PMS_P2;Temp;Humidity;BMP_temperature;BMP_pressure;BME280_temperature;BME280_humidity;BME280_pressure;Samples;Min_cycle;Max_cycle;Signal;HPM_P1;HPM_P2
2023/02/04 00:01:57;;;;;;;4.72;4.38;;;;;;;6.69;100.00;102626.03;6058595;23;20021;-74
2023/02/04 00:04:24;;;;;;;4.60;4.25;;;;;;;6.65;100.00;102617.34;6062844;23;20466;-74
2023/02/04 00:06:50;;;;;;;4.35;4.00;;;;;;;7.28;100.00;102733.63;6055402;23;20456;-75
2023/02/04 00:09:17;;;;;;;8.57;4.55;;;;;;;6.47;100.00;102626.09;6037891;23;20465;-74
2023/02/04 00:11:44;;;;;;;16.98;4.60;;;;;;;7.22;100.00;102741.47;6059989;23;20370;-74
2023/02/04 00:14:10;;;;;;;4.10;3.85;;;;;;;6.45;100.00;102629.59;6025513;23;20089;-74
2023/02/04 00:16:37;;;;;;;12.52;4.32;;;;;;;7.20;100.00;102762.38;6059733;23;20356;-73
2023/02/04 00:19:03;;;;;;;6.32;4.55;;;;;;;6.68;100.00;102685.16;6062380;23;20269;-74
2023/02/04 00:21:30;;;;;;;6.65;4.30;;;;;;;7.21;100.00;102763.25;6035504;23;20027;-73
2023/02/04 00:23:56;;;;;;;4.20;3.95;;;;;;;7.18;100.00;102762.38;6026500;23;20493;-74
2023/02/04 00:26:23;;;;;;;4.75;4.15;;;;;;;6.79;100.00;102703.38;6033536;23;20218;-74
2023/02/04 00:28:49;;;;;;;11.70;5.20;;;;;;;6.65;100.00;102690.38;6007338;23;20119;-75
2023/02/04 00:31:16;;;;;;;4.00;3.80;;;;;;;6.74;100.00;102711.25;6035766;23;20027;-73
2023/02/04 00:33:42;;;;;;;5.18;4.68;;;;;;;6.76;100.00;102729.50;6029060;23;20109;-73
2023/02/04 00:36:09;;;;;;;4.60;4.13;;;;;;;6.69;100.00;102710.38;6055169;23;20450;-75
2023/02/04 00:38:35;;;;;;;11.13;4.22;;;;;;;6.47;100.00;102680.03;6033383;23;20394;-73
2023/02/04 00:41:02;;;;;;;8.65;4.63;;;;;;;6.90;100.00;102742.50;6061549;23;20088;-73
2023/02/04 00:43:28;;;;;;;5.70;4.55;;;;;;;6.97;100.00;102749.41;6005245;23;20057;-73
2023/02/04 00:45:55;;;;;;;7.28;4.65;;;;;;;5.79;100.00;102552.44;6038326;23;20087;-73
2023/02/04 00:48:21;;;;;;;4.88;4.50;;;;;;;6.97;100.00;102760.72;6029578;23;20623;-73
2023/02/04 00:50:48;;;;;;;4.60;4.30;;;;;;;6.95;100.00;102759.84;6014985;23;20071;-74
2023/02/04 00:53:15;;;;;;;8.38;4.05;;;;;;;6.73;100.00;102747.75;6035293;23;20041;-74
2023/02/04 00:55:41;;;;;;;11.73;4.82;;;;;;;6.40;100.00;102671.34;6031811;23;20023;-73
2023/02/04 00:58:08;;;;;;;4.55;4.15;;;;;;;7.02;100.00;102783.34;6058578;23;20634;-75
2023/02/04 01:00:34;;;;;;;4.50;4.22;;;;;;;6.46;100.00;102704.38;6040824;23;20014;-76
2023/02/04 01:03:00;;;;;;;4.40;4.10;;;;;;;6.24;100.00;102694.00;6042617;23;20144;-73
2023/02/04 01:05:27;;;;;;;7.10;4.10;;;;;;;6.75;100.00;102775.59;6043478;23;20033;-73
2023/02/04 01:07:53;;;;;;;4.30;4.00;;;;;;;6.93;100.00;102805.97;6044362;23;20290;-75
2023/02/04 01:10:20;;;;;;;11.57;4.50;;;;;;;6.77;100.00;102784.28;6002541;23;20024;-73
2023/02/04 01:12:46;;;;;;;14.15;4.57;;;;;;;6.71;100.00;102773.00;6038208;23;20097;-73
2023/02/04 01:15:15;;;;;;;4.35;3.97;;;;;;;6.54;100.00;102741.75;6036469;23;20035;-75
2023/02/04 01:17:42;;;;;;;4.95;4.50;;;;;;;6.92;100.00;102806.00;6042505;23;20026;-73
2023/02/04 01:20:09;;;;;;;6.38;4.10;;;;;;;6.51;100.00;102745.22;6036430;23;20033;-73
2023/02/04 01:22:36;;;;;;;4.03;3.70;;;;;;;6.86;100.00;102795.59;6036425;23;20365;-76
2023/02/04 01:25:02;;;;;;;4.10;3.80;;;;;;;6.74;100.00;102794.75;6066065;23;20038;-74
2023/02/04 01:27:29;;;;;;;10.80;4.65;;;;;;;6.80;100.00;102799.06;6064203;23;20034;-74
2023/02/04 01:29:55;;;;;;;3.80;3.60;;;;;;;6.79;100.00;102798.22;6065065;23;20473;-74
2023/02/04 01:32:22;;;;;;;4.43;4.22;;;;;;;6.48;100.00;102753.06;6035941;23;20030;-75
2023/02/04 01:34:48;;;;;;;5.43;4.13;;;;;;;6.22;100.00;102720.94;6069110;23;20558;-73
2023/02/04 01:37:14;;;;;;;18.65;5.18;;;;;;;6.78;100.00;102806.03;6062118;23;20251;-73
2023/02/04 01:39:41;;;;;;;13.27;4.07;;;;;;;6.75;100.00;102838.22;6063325;23;20030;-75
2023/02/04 01:42:08;;;;;;;9.68;4.32;;;;;;;6.25;100.00;102749.59;6033652;23;20037;-74
2023/02/04 01:44:34;;;;;;;6.03;5.28;;;;;;;6.23;100.00;102741.78;6069792;23;20289;-74
2023/02/04 01:47:01;;;;;;;10.15;4.10;;;;;;;6.42;100.00;102778.28;6040158;23;20037;-74
2023/02/04 01:49:28;;;;;;;8.43;4.35;;;;;;;6.68;100.00;102835.63;6059745;23;20041;-73
2023/02/04 01:51:54;;;;;;;3.88;3.67;;;;;;;6.54;100.00;102809.56;6043377;23;20026;-75
2023/02/04 01:54:21;;;;;;;5.50;4.95;;;;;;;6.24;100.00;102787.84;6065312;23;20271;-74
2023/02/04 01:56:50;;;;;;;5.22;3.88;;;;;;;6.67;100.00;102839.09;6038114;23;20158;-73
2023/02/04 01:59:18;;;;;;;5.43;3.80;;;;;;;6.49;100.00;102833.03;6061613;23;20136;-74
2023/02/04 02:01:49;;;;;;;4.00;3.80;;;;;;;6.65;100.00;102846.94;6042721;23;20081;-73
2023/02/04 02:04:29;;;;;;;4.47;4.13;;;;;;;6.68;100.00;102851.31;6069336;23;20508;-74
2023/02/04 02:06:59;;;;;;;5.47;3.63;;;;;;;4.78;100.00;102530.78;6036704;23;20027;-73
2023/02/04 02:09:26;;;;;;;15.15;3.92;;;;;;;6.45;100.00;102817.38;6045751;23;20186;-74
2023/02/04 02:11:53;;;;;;;3.63;3.45;;;;;;;6.43;100.00;102819.13;6008861;23;20022;-74
2023/02/04 02:14:20;;;;;;;3.67;3.50;;;;;;;6.57;100.00;102838.25;6031894;23;20527;-75
2023/02/04 02:16:46;;;;;;;7.95;4.30;;;;;;;6.17;100.00;102778.28;6062978;23;20080;-73
2023/02/04 02:19:22;;;;;;;3.63;3.53;;;;;;;6.11;100.00;102770.47;6040231;23;20039;-74
2023/02/04 02:22:02;;;;;;;5.78;3.95;;;;;;;5.47;100.00;102667.97;6064901;23;20531;-75
2023/02/04 02:24:31;;;;;;;7.10;4.18;;;;;;;6.65;100.00;102861.72;6037477;23;20552;-74
2023/02/04 02:27:03;;;;;;;4.00;3.80;;;;;;;6.57;100.00;102859.13;6061913;23;20042;-75
2023/02/04 02:29:30;;;;;;;4.30;3.90;;;;;;;6.34;100.00;102820.88;6068412;23;20026;-75
2023/02/04 02:31:57;;;;;;;4.32;4.03;;;;;;;6.12;100.00;102793.94;6065595;23;20485;-74
2023/02/04 02:34:26;;;;;;;3.90;3.70;;;;;;;6.19;100.00;102810.44;6066659;23;20018;-74
2023/02/04 02:36:53;;;;;;;4.07;3.88;;;;;;;6.08;100.00;102802.63;6057832;23;20038;-74
2023/02/04 02:39:20;;;;;;;15.10;5.63;;;;;;;5.83;100.00;102775.63;6063433;23;20275;-75
2023/02/04 02:41:47;;;;;;;4.18;3.95;;;;;;;6.49;100.00;102871.28;6062302;23;20026;-74
2023/02/04 02:44:16;;;;;;;4.95;3.95;;;;;;;6.21;100.00;102823.47;6034994;23;20083;-74
2023/02/04 02:46:43;;;;;;;3.97;3.78;;;;;;;6.10;100.00;102805.25;6064062;23;20073;-74
2023/02/04 02:49:14;;;;;;;5.60;4.60;;;;;;;6.40;100.00;102869.56;6072499;23;20022;-74
2023/02/04 02:51:41;;;;;;;5.40;4.88;;;;;;;6.44;100.00;102873.06;6067568;23;20229;-74
2023/02/04 02:54:30;;;;;;;6.10;4.38;;;;;;;6.47;100.00;102888.69;6012953;23;20481;-75
2023/02/04 02:56:57;;;;;;;3.60;3.40;;;;;;;6.43;100.00;102877.38;6020109;23;20057;-74
2023/02/04 02:59:24;;;;;;;4.05;3.75;;;;;;;6.49;100.00;102872.16;6064233;23;20488;-74
2023/02/04 03:01:59;;;;;;;7.78;3.95;;;;;;;5.91;100.00;102776.53;6069224;23;20021;-75
2023/02/04 03:04:29;;;;;;;3.80;3.60;;;;;;;6.32;100.00;102855.66;6037251;23;20033;-74
2023/02/04 03:06:56;;;;;;;3.85;3.65;;;;;;;6.45;100.00;102880.00;6070982;23;20495;-74
2023/02/04 03:09:24;;;;;;;3.55;3.35;;;;;;;5.94;100.00;102794.75;6063133;23;20506;-74
2023/02/04 03:11:51;;;;;;;4.32;4.03;;;;;;;6.15;100.00;102840.88;6068774;23;20476;-74
2023/02/04 03:14:18;;;;;;;4.28;4.07;;;;;;;6.12;100.00;102830.44;6029023;23;20030;-74
2023/02/04 03:16:46;;;;;;;4.43;4.20;;;;;;;5.29;100.00;102705.25;6063972;23;20109;-74
2023/02/04 03:19:13;;;;;;;5.05;4.85;;;;;;;5.76;100.00;102792.16;6031052;23;20159;-74
2023/02/04 03:21:40;;;;;;;4.75;3.95;;;;;;;6.44;100.00;102889.56;6049122;23;20331;-74
2023/02/04 03:24:07;;;;;;;11.35;3.70;;;;;;;6.39;100.00;102889.56;6059286;23;20436;-74
2023/02/04 03:26:33;;;;;;;12.55;4.22;;;;;;;5.92;100.00;102822.56;6059006;23;20405;-73
2023/02/04 03:29:00;;;;;;;3.63;3.42;;;;;;;6.38;100.00;102893.03;6031796;23;20021;-73
2023/02/04 03:31:27;;;;;;;5.57;3.90;;;;;;;6.33;100.00;102893.88;6066179;23;20010;-76
2023/02/04 03:33:53;;;;;;;3.97;3.78;;;;;;;6.02;100.00;102848.69;6062747;23;20116;-74
2023/02/04 03:36:20;;;;;;;5.03;3.90;;;;;;;6.28;100.00;102877.38;6036603;23;20848;-72
2023/02/04 03:38:47;;;;;;;3.70;3.50;;;;;;;6.11;100.00;102870.38;6041345;23;20080;-73
2023/02/04 03:41:13;;;;;;;3.75;3.58;;;;;;;6.08;100.00;102877.38;6069102;23;20079;-74
2023/02/04 03:43:39;;;;;;;6.90;4.68;;;;;;;5.87;100.00;102836.44;6060724;23;20072;-74
2023/02/04 03:46:06;;;;;;;4.68;4.25;;;;;;;5.73;100.00;102833.81;6059297;23;20022;-74
2023/02/04 03:48:32;;;;;;;4.13;3.80;;;;;;;6.16;100.00;102909.53;6040778;23;20264;-75
2023/02/04 03:50:59;;;;;;;7.47;4.00;;;;;;;5.97;100.00;102882.53;6061997;23;20030;-74
2023/02/04 03:53:25;;;;;;;5.63;4.68;;;;;;;6.12;100.00;102913.84;6060773;23;20285;-73
2023/02/04 03:55:52;;;;;;;3.60;3.47;;;;;;;6.07;100.00;102909.50;6030938;23;20323;-74
2023/02/04 03:58:18;;;;;;;7.45;4.55;;;;;;;6.06;100.00;102919.06;6060081;23;20622;-74
2023/02/04 04:00:45;;;;;;;11.68;4.53;;;;;;;6.06;100.00;102905.16;6059168;23;20285;-75
2023/02/04 04:03:11;;;;;;;4.68;4.32;;;;;;;5.43;100.00;102805.94;6030889;23;20030;-74
2023/02/04 04:05:38;;;;;;;4.07;3.78;;;;;;;6.01;100.00;102909.47;6061544;23;20072;-73
2023/02/04 04:08:04;;;;;;;16.10;5.03;;;;;;;5.90;100.00;102893.78;6027750;23;20195;-74
2023/02/04 04:10:31;;;;;;;4.40;4.10;;;;;;;5.96;100.00;102910.34;6058432;23;20510;-74
2023/02/04 04:12:57;;;;;;;8.82;3.97;;;;;;;5.65;100.00;102841.59;6056256;23;20030;-74
2023/02/04 04:15:24;;;;;;;4.10;3.90;;;;;;;5.76;100.00;102870.31;6027810;23;20557;-74
2023/02/04 04:17:50;;;;;;;7.18;5.25;;;;;;;5.77;100.00;102861.59;6061602;23;20039;-73
2023/02/04 04:20:17;;;;;;;5.95;5.47;;;;;;;5.93;100.00;102885.97;6036528;23;20029;-74
2023/02/04 04:22:44;;;;;;;4.43;4.13;;;;;;;5.49;100.00;102826.78;6037244;23;20206;-75
2023/02/04 04:25:11;;;;;;;16.40;4.57;;;;;;;4.72;100.00;102691.19;6039000;23;20023;-73
2023/02/04 04:27:37;;;;;;;6.18;4.30;;;;;;;5.24;100.00;102789.41;6067279;23;20056;-72
2023/02/04 04:30:04;;;;;;;4.32;4.07;;;;;;;5.34;100.00;102804.19;6041291;23;20019;-73
2023/02/04 04:32:30;;;;;;;16.55;4.63;;;;;;;5.91;100.00;102903.34;6068397;23;20027;-73
2023/02/04 04:34:59;;;;;;;4.35;4.05;;;;;;;5.90;100.00;102912.03;6065772;23;20067;-74
2023/02/04 04:37:25;;;;;;;4.10;3.63;;;;;;;5.71;100.00;102895.47;6065828;23;20014;-74
2023/02/04 04:39:52;;;;;;;5.55;3.78;;;;;;;5.47;100.00;102855.47;6008281;23;20085;-73
2023/02/04 04:42:18;;;;;;;4.85;4.55;;;;;;;5.68;100.00;102892.84;6067869;23;20470;-73
2023/02/04 04:44:44;;;;;;;4.25;4.05;;;;;;;5.62;100.00;102885.03;6038339;23;20430;-74
2023/02/04 04:47:11;;;;;;;20.70;3.75;;;;;;;5.02;100.00;102791.91;6066236;23;20611;-74
2023/02/04 04:49:37;;;;;;;6.82;4.20;;;;;;;5.79;100.00;102914.59;6035392;23;20016;-74
2023/02/04 04:52:04;;;;;;;6.03;4.32;;;;;;;4.87;100.00;102763.19;6066098;23;20133;-74
2023/02/04 04:54:33;;;;;;;6.82;4.20;;;;;;;5.65;100.00;102900.66;6066893;23;20021;-73
2023/02/04 04:56:59;;;;;;;8.88;4.55;;;;;;;5.27;100.00;102834.53;6067727;23;20029;-74
2023/02/04 04:59:26;;;;;;;3.55;3.40;;;;;;;5.77;100.00;102919.81;6063384;23;20018;-74
2023/02/04 05:01:52;;;;;;;13.02;4.50;;;;;;;5.19;100.00;102821.50;6035083;23;20050;-74
2023/02/04 05:04:18;;;;;;;4.63;3.90;;;;;;;4.41;100.00;102698.84;6064453;23;20029;-74
2023/02/04 05:06:45;;;;;;;4.63;4.28;;;;;;;5.69;100.00;102916.31;6063248;23;20524;-74
2023/02/04 05:09:11;;;;;;;3.92;3.72;;;;;;;5.36;100.00;102870.16;6058611;23;20073;-75
2023/02/04 05:11:38;;;;;;;4.32;4.03;;;;;;;5.49;100.00;102892.78;6065766;23;20159;-74
2023/02/04 05:14:04;;;;;;;9.75;4.32;;;;;;;5.15;100.00;102822.34;6063981;23;20030;-73
2023/02/04 05:16:31;;;;;;;3.60;3.40;;;;;;;5.54;100.00;102893.66;6035469;23;20015;-73
2023/02/04 05:18:57;;;;;;;4.78;4.35;;;;;;;5.50;100.00;102906.69;6037142;23;20095;-73
2023/02/04 05:21:23;;;;;;;4.63;4.32;;;;;;;5.63;100.00;102921.47;6057923;23;20047;-73
2023/02/04 05:23:50;;;;;;;3.63;3.45;;;;;;;5.16;100.00;102839.69;6062019;23;20104;-73
2023/02/04 05:26:16;;;;;;;12.63;4.97;;;;;;;5.22;100.00;102867.47;6059570;23;20015;-73
2023/02/04 05:28:55;;;;;;;3.72;3.53;;;;;;;4.98;100.00;102840.47;6033945;23;20082;-74
2023/02/04 05:31:22;;;;;;;3.72;3.53;;;;;;;5.11;100.00;102849.22;6069604;23;20107;-73
2023/02/04 05:33:48;;;;;;;6.05;4.28;;;;;;;5.53;100.00;102933.63;6039506;23;20031;-74
2023/02/04 05:36:15;;;;;;;4.70;4.35;;;;;;;4.70;100.00;102796.94;6066291;23;20097;-73
2023/02/04 05:38:41;;;;;;;8.02;3.80;;;;;;;5.48;100.00;102935.31;6066785;23;20031;-74
2023/02/04 05:41:07;;;;;;;5.10;3.80;;;;;;;5.35;100.00;102910.06;6043763;23;20081;-74
2023/02/04 05:43:34;;;;;;;4.70;4.30;;;;;;;5.49;100.00;102921.44;6060109;23;20030;-72
2023/02/04 05:46:01;;;;;;;5.00;4.60;;;;;;;4.99;100.00;102863.03;6067797;23;20526;-74
2023/02/04 05:48:28;;;;;;;8.57;3.40;;;;;;;4.98;100.00;102863.88;6070867;23;20042;-73
2023/02/04 05:50:54;;;;;;;4.47;4.07;;;;;;;5.07;100.00;102893.41;6067902;23;20018;-74
2023/02/04 05:53:20;;;;;;;10.40;4.80;;;;;;;4.98;100.00;102860.41;6065992;23;20200;-73
2023/02/04 05:55:47;;;;;;;4.28;3.88;;;;;;;4.86;100.00;102849.94;6064186;23;20021;-74
2023/02/04 05:58:13;;;;;;;6.47;4.05;;;;;;;5.41;100.00;102949.16;6037656;23;20050;-74
2023/02/04 06:00:40;;;;;;;4.55;4.25;;;;;;;5.40;100.00;102947.41;6065049;23;20032;-74
2023/02/04 06:03:06;;;;;;;11.70;4.78;;;;;;;5.07;100.00;102889.09;6064178;23;20108;-74
2023/02/04 06:05:32;;;;;;;4.07;3.72;;;;;;;5.43;100.00;102942.22;6063672;23;20080;-74
2023/02/04 06:07:59;;;;;;;4.28;3.90;;;;;;;4.64;100.00;102846.31;6032155;23;20188;-74
2023/02/04 06:10:25;;;;;;;3.55;3.45;;;;;;;5.16;100.00;102909.97;6063443;23;20480;-74
2023/02/04 06:12:52;;;;;;;3.90;3.70;;;;;;;4.83;100.00;102876.81;6059615;23;20029;-74
2023/02/04 06:15:19;;;;;;;9.88;4.00;;;;;;;4.78;100.00;102863.75;6034584;23;20030;-73
2023/02/04 06:17:45;;;;;;;3.65;3.55;;;;;;;5.32;100.00;102959.53;6066296;23;20411;-73
2023/02/04 06:20:13;;;;;;;3.75;3.55;;;;;;;5.00;100.00;102895.13;6064820;23;20014;-74
2023/02/04 06:22:40;;;;;;;4.57;4.18;;;;;;;5.21;100.00;102930.81;6030539;23;20368;-72
2023/02/04 06:25:06;;;;;;;3.90;3.67;;;;;;;5.31;100.00;102963.88;6040627;23;20030;-73
2023/02/04 06:27:33;;;;;;;9.75;4.85;;;;;;;5.32;100.00;102959.53;6060337;23;20034;-74
2023/02/04 06:29:59;;;;;;;3.92;3.72;;;;;;;5.00;100.00;102908.13;6066178;23;20104;-73
2023/02/04 06:32:26;;;;;;;4.95;4.35;;;;;;;4.84;100.00;102878.53;6009943;23;20045;-73
2023/02/04 06:34:52;;;;;;;4.32;4.03;;;;;;;4.65;100.00;102863.66;6060773;23;20158;-72
2023/02/04 06:37:19;;;;;;;3.40;3.30;;;;;;;4.23;100.00;102774.06;6067374;23;20034;-73
2023/02/04 06:39:45;;;;;;;3.58;3.45;;;;;;;5.04;100.00;102911.63;6041776;23;20038;-73
2023/02/04 06:42:12;;;;;;;4.35;4.13;;;;;;;4.82;100.00;102895.00;6055779;23;20026;-73
2023/02/04 06:44:38;;;;;;;4.25;3.75;;;;;;;5.29;100.00;102962.09;6035396;23;20067;-73
2023/02/04 06:47:05;;;;;;;4.38;4.15;;;;;;;4.78;100.00;102888.91;6020055;23;20064;-73
2023/02/04 06:49:31;;;;;;;3.58;3.38;;;;;;;4.54;100.00;102838.44;6048765;23;20442;-73
2023/02/04 06:51:57;;;;;;;5.18;4.50;;;;;;;4.84;100.00;102886.34;6039121;23;20543;-75
2023/02/04 06:54:24;;;;;;;4.30;4.00;;;;;;;5.29;100.00;102949.97;6036901;23;20025;-73
2023/02/04 06:56:50;;;;;;;4.07;3.72;;;;;;;4.09;100.00;102784.34;6064747;23;20081;-73
2023/02/04 06:59:17;;;;;;;11.80;4.68;;;;;;;5.04;100.00;102928.09;6059209;23;20073;-73
2023/02/04 07:01:43;;;;;;;16.02;3.63;;;;;;;4.03;100.00;102754.03;6067042;23;20026;-74
2023/02/04 07:04:10;;;;;;;4.05;3.85;;;;;;;5.27;100.00;102956.91;6061274;23;20410;-73
2023/02/04 07:06:36;;;;;;;5.07;4.68;;;;;;;3.93;100.00;102732.28;6067450;23;20036;-73
2023/02/04 07:09:02;;;;;;;4.68;3.70;;;;;;;4.29;100.00;102794.91;6064261;23;20014;-73
2023/02/04 07:11:29;;;;;;;4.38;3.97;;;;;;;4.19;100.00;102781.88;6061273;23;20021;-74
2023/02/04 07:13:55;;;;;;;3.90;3.70;;;;;;;5.29;100.00;102975.13;6063224;23;20013;-74
2023/02/04 07:16:22;;;;;;;4.95;4.57;;;;;;;4.47;100.00;102835.78;6041460;23;20533;-73
2023/02/04 07:18:48;;;;;;;3.67;3.45;;;;;;;4.76;100.00;102873.28;6066891;23;20022;-73
2023/02/04 07:21:15;;;;;;;12.07;4.18;;;;;;;4.08;100.00;102764.44;6066980;23;20032;-74
2023/02/04 07:23:41;;;;;;;5.85;3.35;;;;;;;5.08;100.00;102934.22;6038265;23;20023;-72
2023/02/04 07:26:07;;;;;;;5.10;4.57;;;;;;;5.03;100.00;102925.47;6071905;23;20135;-72
2023/02/04 07:28:35;;;;;;;4.88;4.57;;;;;;;4.75;100.00;102894.06;6069485;23;20014;-73
2023/02/04 07:31:02;;;;;;;5.53;4.95;;;;;;;4.96;100.00;102940.19;6046299;23;20079;-73
2023/02/04 07:33:28;;;;;;;8.23;4.60;;;;;;;5.29;100.00;102985.53;6064596;23;20015;-73
2023/02/04 07:35:55;;;;;;;4.60;4.30;;;;;;;5.34;100.00;102995.13;6060506;23;20096;-72
2023/02/04 07:38:21;;;;;;;5.25;4.90;;;;;;;5.22;100.00;102971.59;6065015;23;20014;-73
2023/02/04 07:40:48;;;;;;;4.85;4.55;;;;;;;4.93;100.00;102938.44;6063888;23;20038;-72
2023/02/04 07:43:14;;;;;;;9.88;4.25;;;;;;;5.43;100.00;103002.09;6058715;23;20545;-73
2023/02/04 07:45:41;;;;;;;4.63;4.32;;;;;;;5.27;100.00;102976.84;6057000;23;20096;-73
2023/02/04 07:48:07;;;;;;;9.45;4.20;;;;;;;4.79;100.00;102904.53;6060232;23;20109;-73
2023/02/04 07:50:34;;;;;;;4.57;4.15;;;;;;;4.77;100.00;102916.66;6029363;23;20018;-73
2023/02/04 07:53:00;;;;;;;4.10;3.80;;;;;;;5.54;100.00;103018.69;6065974;23;20265;-73
2023/02/04 07:55:27;;;;;;;5.47;5.05;;;;;;;5.10;100.00;102938.56;6027380;23;20411;-73
2023/02/04 07:57:54;;;;;;;4.00;3.80;;;;;;;4.77;100.00;102869.81;6062229;23;20080;-73
2023/02/04 08:00:20;;;;;;;3.97;3.78;;;;;;;5.47;100.00;102990.88;6046852;23;20034;-73
2023/02/04 08:02:47;;;;;;;4.90;4.60;;;;;;;5.57;100.00;103026.53;6028140;23;20185;-73
2023/02/04 08:05:14;;;;;;;5.45;4.95;;;;;;;5.44;100.00;103001.25;6048163;23;20028;-73
2023/02/04 08:07:40;;;;;;;4.78;4.38;;;;;;;5.38;100.00;102977.78;6040434;23;20478;-73
2023/02/04 08:10:09;;;;;;;7.85;4.63;;;;;;;5.48;100.00;103008.22;6056965;23;20522;-72
2023/02/04 08:12:38;;;;;;;5.88;4.50;;;;;;;5.68;100.00;103029.19;6018509;23;20034;-72
2023/02/04 08:15:07;;;;;;;4.10;3.85;;;;;;;4.75;100.00;102878.47;6054368;23;20573;-72
2023/02/04 08:17:34;;;;;;;3.85;3.65;;;;;;;5.34;100.00;102968.22;6016646;23;20021;-72
2023/02/04 08:20:01;;;;;;;6.30;4.10;;;;;;;5.74;100.00;103036.19;6055596;23;20429;-72
2023/02/04 08:22:27;;;;;;;4.93;4.45;;;;;;;5.57;100.00;103018.72;6061929;23;20026;-72
2023/02/04 08:24:54;;;;;;;5.93;5.10;;;;;;;4.79;100.00;102964.34;6059300;23;20044;-72
2023/02/04 08:27:20;;;;;;;9.23;4.85;;;;;;;5.65;100.00;103023.94;6059227;23;20035;-73
2023/02/04 08:29:47;;;;;;;10.15;4.45;;;;;;;5.75;100.00;103032.69;6065672;23;21180;-71
2023/02/04 08:32:15;;;;;;;4.35;4.05;;;;;;;5.43;100.00;102989.09;6030844;23;20532;-71
2023/02/04 08:34:42;;;;;;;6.57;4.47;;;;;;;5.92;100.00;103071.88;6038701;23;20433;-73
2023/02/04 08:37:09;;;;;;;4.25;4.03;;;;;;;5.45;100.00;102991.72;6059894;23;20030;-72
2023/02/04 08:39:37;;;;;;;7.75;5.53;;;;;;;5.97;100.00;103078.91;6034604;23;20022;-72
2023/02/04 08:42:03;;;;;;;8.90;4.95;;;;;;;6.02;100.00;103078.06;6037873;23;20030;-72
2023/02/04 08:44:30;;;;;;;9.05;5.35;;;;;;;6.08;100.00;103065.06;6032858;23;20552;-73
2023/02/04 08:46:59;;;;;;;5.00;4.70;;;;;;;5.96;100.00;103084.97;6065531;23;20045;-72
2023/02/04 08:49:25;;;;;;;10.88;4.78;;;;;;;5.66;100.00;103010.06;6025828;23;20089;-74
2023/02/04 08:51:52;;;;;;;10.43;5.38;;;;;;;6.10;100.00;103085.03;6058938;23;21136;-73
2023/02/04 08:54:18;;;;;;;4.80;4.50;;;;;;;5.41;100.00;102959.56;6058891;23;20093;-73
2023/02/04 08:56:45;;;;;;;5.03;4.53;;;;;;;6.22;100.00;103081.63;6034389;23;20219;-73
2023/02/04 08:59:11;;;;;;;5.22;4.65;;;;;;;6.32;100.00;103093.84;6072469;23;20844;-74
2023/02/04 09:01:38;;;;;;;4.47;4.18;;;;;;;6.27;100.00;103066.84;6037052;23;20299;-73
2023/02/04 09:04:04;;;;;;;4.28;4.00;;;;;;;6.26;100.00;103070.34;6041103;23;20317;-73
2023/02/04 09:06:30;;;;;;;9.38;4.57;;;;;;;6.37;100.00;103073.88;6070709;23;20022;-75
2023/02/04 09:08:57;;;;;;;22.23;6.43;;;;;;;6.06;100.00;103041.56;6042742;23;20014;-73
2023/02/04 09:11:23;;;;;;;5.78;4.93;;;;;;;5.69;100.00;102923.25;6059523;23;20018;-73
2023/02/04 09:13:50;;;;;;;4.93;4.43;;;;;;;5.63;100.00;102910.19;6065007;23;20374;-73
2023/02/04 09:16:17;;;;;;;12.07;6.15;;;;;;;6.07;100.00;102992.91;6037448;23;20168;-73
2023/02/04 09:18:43;;;;;;;4.32;4.00;;;;;;;6.37;100.00;103036.47;6032991;23;20030;-73
2023/02/04 09:21:10;;;;;;;5.82;5.35;;;;;;;6.43;100.00;103064.31;6034890;23;20038;-74
2023/02/04 09:23:36;;;;;;;4.63;4.03;;;;;;;6.75;100.00;103109.59;6061426;23;20536;-72
2023/02/04 09:26:05;;;;;;;7.93;5.13;;;;;;;6.39;100.00;103006.94;6060280;23;20554;-73
2023/02/04 09:28:31;;;;;;;11.70;4.53;;;;;;;6.15;100.00;102965.13;6037782;23;20167;-73
2023/02/04 09:30:59;;;;;;;12.25;5.03;;;;;;;6.18;100.00;102994.69;6062774;23;20014;-73
2023/02/04 09:33:25;;;;;;;7.35;4.90;;;;;;;6.96;100.00;103144.50;6061683;23;20202;-74
2023/02/04 09:35:52;;;;;;;4.35;4.15;;;;;;;6.37;100.00;103049.50;6010158;23;20056;-73
2023/02/04 09:38:20;;;;;;;30.45;5.18;;;;;;;6.67;100.00;103074.81;6066192;23;20335;-74
2023/02/04 09:40:54;;;;;;;5.57;5.10;;;;;;;6.42;100.00;103042.56;6063396;23;20894;-73
2023/02/04 09:43:26;;;;;;;4.90;4.55;;;;;;;6.66;100.00;103069.59;6002703;23;20716;-74
2023/02/04 09:45:54;;;;;;;;;;;;;;;7.05;100.00;103143.63;6051023;23;20438;-73
2023/02/04 09:48:21;;;;;;;8.43;5.20;;;;;;;6.50;100.00;103076.50;6061704;23;19906;-73
2023/02/04 09:50:49;;;;;;;14.40;4.78;;;;;;;6.79;100.00;103116.63;6060461;23;20026;-72
2023/02/04 09:53:20;;;;;;;19.58;5.20;;;;;;;6.95;100.00;103140.97;6034073;23;20082;-73
2023/02/04 09:55:48;;;;;;;4.32;3.95;;;;;;;7.11;100.00;103151.47;6066233;23;20084;-73
2023/02/04 09:58:17;;;;;;;4.97;4.57;;;;;;;7.17;100.00;103168.00;6059968;23;20101;-73
2023/02/04 10:00:46;;;;;;;21.00;5.25;;;;;;;7.08;100.00;103144.50;6036634;23;20026;-72
2023/02/04 10:03:17;;;;;;;6.40;5.22;;;;;;;7.14;100.00;103128.84;6066000;23;20026;-73
2023/02/04 10:05:45;;;;;;;11.77;5.03;;;;;;;6.63;100.00;103015.66;6013992;23;20098;-73
2023/02/04 10:08:16;;;;;;;7.57;4.88;;;;;;;7.53;100.00;103166.31;6039087;23;20040;-72
2023/02/04 10:10:44;;;;;;;18.38;5.53;;;;;;;6.42;100.00;102990.41;6034623;23;20026;-73
2023/02/04 10:13:33;;;;;;;10.75;5.07;;;;;;;7.36;100.00;103155.00;6057485;23;20532;-73
2023/02/04 10:16:00;;;;;;;12.82;6.65;;;;;;;7.52;100.00;103180.25;6063636;23;20266;-75
2023/02/04 10:18:34;;;;;;;19.25;6.22;;;;;;;7.65;100.00;103181.13;6019848;23;20018;-73
2023/02/04 10:21:14;;;;;;;6.25;5.55;;;;;;;7.26;100.00;103111.47;6044319;23;20460;-73
2023/02/04 10:23:43;;;;;;;7.35;5.18;;;;;;;7.70;100.00;103183.75;6040841;23;20029;-72
2023/02/04 10:26:11;;;;;;;11.57;6.40;;;;;;;7.67;100.00;103184.59;6063129;23;20599;-73
2023/02/04 10:28:39;;;;;;;12.32;5.53;;;;;;;7.41;100.00;103194.19;6060796;23;20038;-72
2023/02/04 10:31:25;;;;;;;16.42;6.30;;;;;;;6.85;100.00;103126.16;6014766;23;20026;-71
2023/02/04 10:34:11;;;;;;;13.02;6.85;;;;;;;6.25;100.00;102976.47;6063320;23;20074;-72
2023/02/04 10:36:39;;;;;;;16.92;8.25;;;;;;;6.76;100.00;103064.41;6011792;23;20006;-71
2023/02/04 10:39:12;;;;;;;9.35;5.57;;;;;;;7.56;100.00;103194.19;6041141;23;20055;-74
2023/02/04 10:41:44;;;;;;;6.47;4.63;;;;;;;7.73;100.00;103189.81;6034166;23;20144;-73
2023/02/04 10:44:13;;;;;;;6.10;5.65;;;;;;;6.44;100.00;102931.28;6069141;23;20459;-72
2023/02/04 10:46:39;;;;;;;9.65;6.75;;;;;;;7.69;100.00;103179.38;6031390;23;20022;-72
2023/02/04 10:49:21;;;;;;;15.27;7.75;;;;;;;7.91;100.00;103196.78;6043679;23;20021;-72
2023/02/04 10:51:50;;;;;;;16.70;6.93;;;;;;;7.55;100.00;103188.09;6069250;23;20112;-73
2023/02/04 10:54:31;;;;;;;7.57;6.38;;;;;;;7.54;100.00;103196.81;6033809;23;20421;-72
2023/02/04 10:57:01;;;;;;;14.73;6.85;;;;;;;6.79;100.00;103060.91;6069298;23;20339;-72
2023/02/04 10:59:28;;;;;;;15.93;7.75;;;;;;;7.68;100.00;103193.34;6049752;23;20018;-72
2023/02/04 11:01:56;;;;;;;10.85;6.88;;;;;;;7.66;100.00;103195.94;6038497;23;20016;-72
2023/02/04 11:04:23;;;;;;;24.48;7.32;;;;;;;7.79;100.00;103157.59;6034646;23;20027;-72
2023/02/04 11:06:51;;;;;;;11.88;7.00;;;;;;;7.94;100.00;103115.75;6065757;23;20022;-72
2023/02/04 11:09:18;;;;;;;19.10;8.77;;;;;;;8.66;100.00;103187.03;6063604;23;20553;-73
2023/02/04 11:11:47;;;;;;;10.25;7.55;;;;;;;8.82;100.00;103182.63;6032192;23;20481;-72
2023/02/04 11:14:28;;;;;;;17.40;8.00;;;;;;;8.74;100.00;103186.16;6059323;23;20454;-72
2023/02/04 11:17:00;;;;;;;23.65;8.35;;;;;;;8.66;100.00;103171.34;6034103;23;20035;-72
2023/02/04 11:19:36;;;;;;;14.40;6.40;;;;;;;8.68;100.00;103170.47;6039325;23;20143;-73
2023/02/04 11:22:34;;;;;;;13.27;7.93;;;;;;;8.69;100.00;103161.72;6033760;23;20159;-72
2023/02/04 11:25:01;;;;;;;9.27;7.55;;;;;;;7.95;100.00;103043.41;6044668;23;20520;-72
2023/02/04 11:27:39;;;;;;;18.52;6.60;;;;;;;8.44;100.00;103152.22;6003731;23;20031;-71